Terminal Aerodrome Forecast
Issued by NWS Shreveport, LA

Home | Current Version | Previous Version | Text Only | Print | Product List | Glossary On
Versions: 1 2 3 4 5 6 7 8 9 10 11 12 13 14 15 16
000
FTUS44 KSHV 211700
TAFGGG
TAF
KGGG 211739Z 2118/2218 16005KT P6SM SCT007 OVC025
     FM220000 16006KT P6SM SCT025 BKN045
     FM220500 17008KT 6SM BR OVC025
     FM220800 17010KT 3SM BR OVC007
      TEMPO 2211/2215 1/2SM DZ FG OVC004
     FM221600 17012KT 4SM BR OVC004=

USA.gov is the U.S. government's official web portal to all federal, state and local government web resources and services.